Time,TemperatureF,DewpointF,PressureIn,WindDirection,WindDirectionDegrees,WindSpeedMPH,WindSpeedGustMPH,Humidity,HourlyPrecipIn,Conditions,Clouds,dailyrainin,SoftwareType,DateUTC
2013-03-05 00:00:00,46.6,46.4,30.02,NW,315,1.0,4.0,99,0.00,,,0.00,meteohub,2013-03-05 05:00:00,
2013-03-05 00:01:00,46.6,46.4,30.01,South,180,1.0,2.0,99,0.00,,,0.00,meteohub,2013-03-05 05:01:00,
2013-03-05 00:02:00,46.6,46.4,30.01,South,180,1.0,2.0,99,0.00,,,0.00,meteohub,2013-03-05 05:02:00,
2013-03-05 00:07:00,46.6,46.4,30.01,West,270,3.0,3.0,99,0.00,,,0.00,meteohub,2013-03-05 05:07:00,
2013-03-05 00:12:00,46.6,46.4,30.00,SW,225,2.0,3.0,99,0.00,,,0.00,meteohub,2013-03-05 05:12:00,
2013-03-05 00:17:00,46.8,46.6,29.99,West,270,2.0,3.0,99,0.00,,,0.00,meteohub,2013-03-05 05:17:00,
2013-03-05 00:22:00,47.1,46.9,29.99,NW,315,4.0,4.0,99,0.00,,,0.00,meteohub,2013-03-05 05:22:00,
2013-03-05 00:27:00,47.5,47.3,29.99,ENE,68,2.0,4.0,99,0.00,,,0.00,meteohub,2013-03-05 05:27:00,
2013-03-05 00:32:00,47.7,47.5,29.98,NNW,338,4.0,5.0,99,0.00,,,0.00,meteohub,2013-03-05 05:32:00,
2013-03-05 00:37:00,48.0,47.8,29.99,SE,135,2.0,5.0,99,0.00,,,0.00,meteohub,2013-03-05 05:37:00,
2013-03-05 00:42:00,48.4,48.2,29.99,NW,315,2.0,5.0,99,0.00,,,0.00,meteohub,2013-03-05 05:42:00,
2013-03-05 00:47:00,48.4,48.2,30.01,NW,315,2.0,4.0,99,0.00,,,0.00,meteohub,2013-03-05 05:47:00,
2013-03-05 00:52:00,48.4,48.2,30.01,North,0,0.0,4.0,99,0.00,,,0.00,meteohub,2013-03-05 05:52:00,
2013-03-05 00:58:00,48.2,48.0,30.02,NW,315,2.0,3.0,99,0.00,,,0.00,meteohub,2013-03-05 05:58:00,
2013-03-05 01:03:00,47.8,47.7,30.03,West,270,0.0,3.0,99,0.00,,,0.00,meteohub,2013-03-05 06:03:00,
2013-03-05 01:08:00,47.7,47.5,30.03,NW,315,1.0,2.0,99,0.00,,,0.00,meteohub,2013-03-05 06:08:00,
2013-03-05 01:13:00,47.3,47.1,30.03,West,270,1.0,2.0,99,0.00,,,0.00,meteohub,2013-03-05 06:13:00,
2013-03-05 01:18:00,47.3,47.1,30.04,NW,315,2.0,2.0,99,0.00,,,0.00,meteohub,2013-03-05 06:18:00,
2013-03-05 01:23:00,46.9,46.8,30.03,SW,225,0.0,2.0,99,0.00,,,0.00,meteohub,2013-03-05 06:23:00,
2013-03-05 01:28:00,46.8,46.6,30.03,SE,135,0.0,2.0,99,0.00,,,0.00,meteohub,2013-03-05 06:28:00,
2013-03-05 01:33:00,46.4,46.2,30.03,SE,135,1.0,2.0,99,0.00,,,0.00,meteohub,2013-03-05 06:33:00,
2013-03-05 01:38:00,45.9,45.7,30.04,SE,135,0.0,2.0,99,0.00,,,0.00,meteohub,2013-03-05 06:38:00,
2013-03-05 01:43:00,45.7,45.5,30.04,South,180,0.0,1.0,99,0.00,,,0.00,meteohub,2013-03-05 06:43:00,
2013-03-05 01:48:00,45.3,45.1,30.04,South,180,0.0,1.0,99,0.00,,,0.00,meteohub,2013-03-05 06:48:00,
2013-03-05 01:53:00,45.0,44.8,30.04,South,180,0.0,1.0,99,0.00,,,0.00,meteohub,2013-03-05 06:53:00,
2013-03-05 01:58:00,45.0,44.8,30.03,West,270,1.0,1.0,99,0.00,,,0.00,meteohub,2013-03-05 06:58:00,
2013-03-05 02:03:00,44.8,44.6,30.04,North,0,1.0,2.0,99,0.00,,,0.00,meteohub,2013-03-05 07:03:00,
2013-03-05 02:08:00,44.6,44.4,30.04,North,0,0.0,2.0,99,0.00,,,0.00,meteohub,2013-03-05 07:08:00,
2013-03-05 02:13:00,44.2,44.1,30.03,North,0,0.0,2.0,99,0.00,,,0.00,meteohub,2013-03-05 07:13:00,
2013-03-05 02:18:00,44.2,44.1,30.03,North,0,0.0,1.0,99,0.00,,,0.00,meteohub,2013-03-05 07:18:00,
2013-03-05 02:23:00,44.1,43.9,30.03,North,0,0.0,0.0,99,0.00,,,0.00,meteohub,2013-03-05 07:23:00,
2013-03-05 02:29:00,43.9,43.7,30.03,North,0,0.0,0.0,99,0.00,,,0.00,meteohub,2013-03-05 07:29:00,
2013-03-05 02:34:00,44.1,43.9,30.03,SW,225,0.0,0.0,99,0.00,,,0.00,meteohub,2013-03-05 07:34:00,
2013-03-05 02:39:00,43.9,43.7,30.02,SE,135,0.0,0.0,99,0.00,,,0.00,meteohub,2013-03-05 07:39:00,
2013-03-05 02:44:00,43.9,43.7,30.02,SW,225,0.0,0.0,99,0.00,,,0.00,meteohub,2013-03-05 07:44:00,
2013-03-05 02:49:00,43.9,43.7,30.02,West,270,0.0,0.0,99,0.00,,,0.00,meteohub,2013-03-05 07:49:00,
2013-03-05 02:54:00,43.5,43.3,30.02,West,270,1.0,1.0,99,0.00,,,0.00,meteohub,2013-03-05 07:54:00,
2013-03-05 02:59:00,43.3,43.2,30.02,West,270,1.0,1.0,99,0.00,,,0.00,meteohub,2013-03-05 07:59:00,
2013-03-05 03:04:00,43.3,43.2,30.03,West,270,1.0,1.0,99,0.00,,,0.00,meteohub,2013-03-05 08:04:00,
2013-03-05 03:09:00,43.0,42.8,30.02,West,270,0.0,2.0,99,0.00,,,0.00,meteohub,2013-03-05 08:09:00,
2013-03-05 03:14:00,42.6,42.4,30.02,SE,135,0.0,2.0,99,0.00,,,0.00,meteohub,2013-03-05 08:14:00,
2013-03-05 03:19:00,42.3,42.1,30.02,SE,135,0.0,2.0,99,0.00,,,0.00,meteohub,2013-03-05 08:19:00,
2013-03-05 03:24:00,41.9,41.7,30.02,SE,135,0.0,1.0,99,0.00,,,0.00,meteohub,2013-03-05 08:24:00,
2013-03-05 03:29:00,41.5,41.4,30.02,SW,225,0.0,0.0,99,0.00,,,0.00,meteohub,2013-03-05 08:29:00,
2013-03-05 03:34:00,41.7,41.5,30.03,NW,315,1.0,0.0,99,0.00,,,0.00,meteohub,2013-03-05 08:34:00,
2013-03-05 03:39:00,41.9,41.7,30.03,West,270,0.0,1.0,99,0.00,,,0.00,meteohub,2013-03-05 08:39:00,
2013-03-05 03:45:00,41.9,41.7,30.04,West,270,0.0,1.0,99,0.00,,,0.00,meteohub,2013-03-05 08:45:00,
2013-03-05 03:50:00,41.7,41.5,30.03,South,180,0.0,1.0,99,0.00,,,0.00,meteohub,2013-03-05 08:50:00,
2013-03-05 03:55:00,41.7,41.5,30.03,South,180,1.0,1.0,99,0.00,,,0.00,meteohub,2013-03-05 08:55:00,
2013-03-05 04:00:00,41.5,41.4,30.02,SE,135,0.0,1.0,99,0.00,,,0.00,meteohub,2013-03-05 09:00:00,
2013-03-05 04:05:00,41.4,41.2,30.03,North,0,1.0,1.0,99,0.00,,,0.00,meteohub,2013-03-05 09:05:00,
2013-03-05 04:10:00,41.4,41.2,30.04,West,270,1.0,2.0,99,0.00,,,0.00,meteohub,2013-03-05 09:10:00,
2013-03-05 04:15:00,41.4,41.2,30.04,SW,225,1.0,2.0,99,0.00,,,0.00,meteohub,2013-03-05 09:15:00,
2013-03-05 04:20:00,41.4,41.2,30.03,SE,135,1.0,2.0,99,0.00,,,0.00,meteohub,2013-03-05 09:20:00,
2013-03-05 04:25:00,41.4,41.2,30.04,SE,135,0.0,2.0,99,0.00,,,0.00,meteohub,2013-03-05 09:25:00,
2013-03-05 04:30:00,41.2,41.0,30.04,North,0,0.0,1.0,99,0.00,,,0.00,meteohub,2013-03-05 09:30:00,
2013-03-05 04:35:00,41.2,41.0,30.04,North,0,0.0,1.0,99,0.00,,,0.00,meteohub,2013-03-05 09:35:00,
2013-03-05 04:40:00,41.0,40.8,30.04,North,0,0.0,0.0,99,0.00,,,0.00,meteohub,2013-03-05 09:40:00,
2013-03-05 04:45:00,40.5,40.3,30.04,North,0,0.0,0.0,99,0.00,,,0.00,meteohub,2013-03-05 09:45:00,
2013-03-05 04:50:00,40.5,40.3,30.04,North,0,0.0,0.0,99,0.00,,,0.00,meteohub,2013-03-05 09:50:00,
2013-03-05 04:55:00,40.5,40.3,30.04,North,0,0.0,0.0,99,0.00,,,0.00,meteohub,2013-03-05 09:55:00,
2013-03-05 05:01:00,40.5,40.3,30.05,SW,225,1.0,0.0,99,0.00,,,0.00,meteohub,2013-03-05 10:01:00,
2013-03-05 05:06:00,40.5,40.3,30.05,West,270,1.0,1.0,99,0.00,,,0.00,meteohub,2013-03-05 10:06:00,
2013-03-05 05:11:00,40.5,40.3,30.05,West,270,0.0,1.0,99,0.00,,,0.00,meteohub,2013-03-05 10:11:00,
2013-03-05 05:16:00,40.3,40.1,30.04,West,270,0.0,1.0,99,0.00,,,0.00,meteohub,2013-03-05 10:16:00,
2013-03-05 05:21:00,40.1,39.9,30.05,West,270,1.0,1.0,99,0.00,,,0.00,meteohub,2013-03-05 10:21:00,
2013-03-05 05:26:00,39.9,39.7,30.05,West,270,0.0,1.0,99,0.00,,,0.00,meteohub,2013-03-05 10:26:00,
2013-03-05 05:31:00,39.4,39.2,30.05,West,270,0.0,1.0,99,0.00,,,0.00,meteohub,2013-03-05 10:31:00,
2013-03-05 05:36:00,39.2,39.0,30.06,West,270,1.0,1.0,99,0.00,,,0.00,meteohub,2013-03-05 10:36:00,
2013-03-05 05:41:00,39.2,39.0,30.06,West,270,0.0,1.0,99,0.00,,,0.00,meteohub,2013-03-05 10:41:00,
2013-03-05 05:46:00,39.0,38.8,30.05,SE,135,1.0,1.0,99,0.00,,,0.00,meteohub,2013-03-05 10:46:00,
2013-03-05 05:51:00,38.8,38.7,30.05,SE,135,0.0,1.0,99,0.00,,,0.00,meteohub,2013-03-05 10:51:00,
2013-03-05 05:57:00,38.7,38.5,30.06,SE,135,0.0,1.0,99,0.00,,,0.00,meteohub,2013-03-05 10:57:00,
2013-03-05 06:02:00,38.5,38.3,30.05,SE,135,0.0,1.0,99,0.00,,,0.00,meteohub,2013-03-05 11:02:00,
2013-03-05 06:07:00,38.7,38.5,30.04,SE,135,0.0,0.0,99,0.00,,,0.00,meteohub,2013-03-05 11:07:00,
2013-03-05 06:12:00,39.0,38.8,30.04,West,270,0.0,0.0,99,0.00,,,0.00,meteohub,2013-03-05 11:12:00,
2013-03-05 06:17:00,39.2,39.0,30.04,North,0,1.0,1.0,99,0.00,,,0.00,meteohub,2013-03-05 11:17:00,
2013-03-05 06:22:00,39.2,39.0,30.04,North,0,0.0,1.0,99,0.00,,,0.00,meteohub,2013-03-05 11:22:00,
2013-03-05 06:27:00,39.0,38.8,30.05,South,180,0.0,1.0,99,0.00,,,0.00,meteohub,2013-03-05 11:27:00,
2013-03-05 06:32:00,39.0,38.8,30.04,SW,225,0.0,1.0,99,0.00,,,0.00,meteohub,2013-03-05 11:32:00,
2013-03-05 06:37:00,39.2,39.0,30.04,SW,225,0.0,0.0,99,0.00,,,0.00,meteohub,2013-03-05 11:37:00,
2013-03-05 06:42:00,39.4,39.2,30.04,SW,225,0.0,0.0,99,0.00,,,0.00,meteohub,2013-03-05 11:42:00,
2013-03-05 06:47:00,40.1,39.9,30.04,SW,225,0.0,0.0,99,0.00,,,0.00,meteohub,2013-03-05 11:47:00,
2013-03-05 06:52:00,40.5,40.3,30.04,SW,225,0.0,0.0,99,0.00,,,0.00,meteohub,2013-03-05 11:52:00,
2013-03-05 06:57:00,40.6,40.5,30.04,SW,225,0.0,0.0,99,0.00,,,0.00,meteohub,2013-03-05 11:57:00,
2013-03-05 07:02:00,41.2,41.0,30.04,SW,225,0.0,1.0,99,0.00,,,0.00,meteohub,2013-03-05 12:02:00,
2013-03-05 07:07:00,41.5,41.4,30.04,SW,225,0.0,1.0,99,0.00,,,0.00,meteohub,2013-03-05 12:07:00,
2013-03-05 07:12:00,41.9,41.7,30.04,SE,135,1.0,1.0,99,0.00,,,0.00,meteohub,2013-03-05 12:12:00,
2013-03-05 07:17:00,42.3,42.1,30.04,SE,135,2.0,2.0,99,0.00,,,0.00,meteohub,2013-03-05 12:17:00,
2013-03-05 07:22:00,43.2,43.0,30.04,North,0,1.0,2.0,99,0.00,,,0.00,meteohub,2013-03-05 12:22:00,
2013-03-05 07:27:00,44.2,44.1,30.04,South,180,0.0,2.0,99,0.00,,,0.00,meteohub,2013-03-05 12:27:00,
2013-03-05 07:32:00,46.4,46.2,30.04,North,0,0.0,2.0,99,0.00,,,0.00,meteohub,2013-03-05 12:32:00,
2013-03-05 07:37:00,48.0,47.8,30.04,West,270,2.0,2.0,99,0.00,,,0.00,meteohub,2013-03-05 12:37:00,
2013-03-05 07:42:00,50.2,49.8,30.04,SE,135,4.0,4.0,99,0.00,,,0.00,meteohub,2013-03-05 12:42:00,
2013-03-05 07:47:00,50.0,49.6,30.04,NW,315,1.0,4.0,99,0.00,,,0.00,meteohub,2013-03-05 12:47:00,
2013-03-05 07:52:00,51.8,51.4,30.04,West,270,2.0,4.0,99,0.00,,,0.00,meteohub,2013-03-05 12:52:00,
2013-03-05 07:57:00,52.5,52.2,30.05,West,270,2.0,4.0,99,0.00,,,0.00,meteohub,2013-03-05 12:57:00,
2013-03-05 08:02:00,53.1,52.7,30.05,NE,45,2.0,2.0,99,0.00,,,0.00,meteohub,2013-03-05 13:02:00,
2013-03-05 08:07:00,53.2,52.7,30.04,NW,315,3.0,3.0,98,0.00,,,0.00,meteohub,2013-03-05 13:07:00,
2013-03-05 08:12:00,53.6,51.6,30.04,ESE,113,3.0,3.0,93,0.00,,,0.00,meteohub,2013-03-05 13:12:00,
2013-03-05 08:17:00,53.1,50.7,30.04,West,270,2.0,3.0,92,0.00,,,0.00,meteohub,2013-03-05 13:17:00,
2013-03-05 08:22:00,52.9,50.9,30.04,South,180,2.0,4.0,93,0.00,,,0.00,meteohub,2013-03-05 13:22:00,
2013-03-05 08:27:00,53.8,51.3,30.03,West,270,2.0,4.0,91,0.00,,,0.00,meteohub,2013-03-05 13:27:00,
2013-03-05 08:32:00,54.7,51.3,30.04,West,270,2.0,4.0,88,0.00,,,0.00,meteohub,2013-03-05 13:32:00,
2013-03-05 08:37:00,56.5,52.3,30.03,West,270,2.0,4.0,86,0.00,,,0.00,meteohub,2013-03-05 13:37:00,
2013-03-05 08:42:00,58.3,52.2,30.03,West,270,3.0,4.0,80,0.00,,,0.00,meteohub,2013-03-05 13:42:00,
2013-03-05 08:47:00,59.4,52.2,30.03,West,270,2.0,4.0,77,0.00,,,0.00,meteohub,2013-03-05 13:47:00,
2013-03-05 08:52:00,58.8,50.5,30.03,SW,225,3.0,4.0,74,0.00,,,0.00,meteohub,2013-03-05 13:52:00,
2013-03-05 08:57:00,59.2,52.0,30.03,NW,315,3.0,5.0,77,0.00,,,0.00,meteohub,2013-03-05 13:57:00,
2013-03-05 09:02:00,59.7,52.5,30.03,West,270,1.0,5.0,77,0.00,,,0.00,meteohub,2013-03-05 14:02:00,
2013-03-05 09:07:00,61.5,52.7,30.02,SW,225,2.0,5.0,73,0.00,,,0.00,meteohub,2013-03-05 14:07:00,
2013-03-05 09:12:00,61.7,50.7,30.02,NW,315,4.0,4.0,67,0.00,,,0.00,meteohub,2013-03-05 14:12:00,
2013-03-05 09:17:00,60.8,50.2,30.02,SW,225,5.0,6.0,68,0.00,,,0.00,meteohub,2013-03-05 14:17:00,
2013-03-05 09:22:00,60.8,49.5,30.01,North,0,5.0,6.0,66,0.00,,,0.00,meteohub,2013-03-05 14:22:00,
2013-03-05 09:27:00,61.3,49.8,30.01,SW,225,4.0,6.0,66,0.00,,,0.00,meteohub,2013-03-05 14:27:00,
2013-03-05 09:32:00,61.0,49.1,30.01,SW,225,8.0,8.0,65,0.00,,,0.00,meteohub,2013-03-05 14:32:00,
2013-03-05 09:37:00,61.0,49.1,30.02,West,270,8.0,8.0,65,0.00,,,0.00,meteohub,2013-03-05 14:37:00,
2013-03-05 09:42:00,61.2,50.2,30.01,West,270,5.0,8.0,67,0.00,,,0.00,meteohub,2013-03-05 14:42:00,
2013-03-05 09:47:00,62.2,49.1,30.01,West,270,11.0,11.0,62,0.00,,,0.00,meteohub,2013-03-05 14:47:00,
2013-03-05 09:52:00,62.8,48.7,30.01,NW,315,8.0,11.0,60,0.00,,,0.00,meteohub,2013-03-05 14:52:00,
2013-03-05 09:57:00,62.8,48.2,30.01,NW,315,5.0,11.0,59,0.00,,,0.00,meteohub,2013-03-05 14:57:00,
2013-03-05 10:02:00,63.1,48.6,30.01,West,270,8.0,11.0,59,0.00,,,0.00,meteohub,2013-03-05 15:02:00,
2013-03-05 10:07:00,63.5,48.4,30.01,West,270,10.0,10.0,58,0.00,,,0.00,meteohub,2013-03-05 15:07:00,
2013-03-05 10:12:00,63.1,48.6,30.01,West,270,7.0,10.0,59,0.00,,,0.00,meteohub,2013-03-05 15:12:00,
2013-03-05 10:17:00,63.0,48.9,30.01,NW,315,8.0,10.0,60,0.00,,,0.00,meteohub,2013-03-05 15:17:00,
2013-03-05 10:22:00,63.1,49.1,30.00,West,270,4.0,10.0,60,0.00,,,0.00,meteohub,2013-03-05 15:22:00,
2013-03-05 10:27:00,63.3,48.4,30.00,NW,315,10.0,13.0,58,0.00,,,0.00,meteohub,2013-03-05 15:27:00,
2013-03-05 10:32:00,64.0,48.9,30.00,West,270,9.0,13.0,58,0.00,,,0.00,meteohub,2013-03-05 15:32:00,
2013-03-05 10:37:00,65.3,49.3,30.00,West,270,12.0,13.0,56,0.00,,,0.00,meteohub,2013-03-05 15:37:00,
2013-03-05 10:42:00,65.7,49.5,30.00,West,270,9.0,12.0,56,0.00,,,0.00,meteohub,2013-03-05 15:42:00,
2013-03-05 10:47:00,65.1,49.5,30.00,West,270,7.0,12.0,57,0.00,,,0.00,meteohub,2013-03-05 15:47:00,
2013-03-05 10:52:00,64.9,50.2,29.99,NW,315,5.0,12.0,59,0.00,,,0.00,meteohub,2013-03-05 15:52:00,
2013-03-05 10:57:00,64.8,49.6,29.99,NW,315,11.0,12.0,58,0.00,,,0.00,meteohub,2013-03-05 15:57:00,
2013-03-05 11:02:00,65.1,49.5,29.99,NW,315,13.0,13.0,57,0.00,,,0.00,meteohub,2013-03-05 16:02:00,
2013-03-05 11:07:00,65.5,49.8,29.99,West,270,11.0,13.0,57,0.00,,,0.00,meteohub,2013-03-05 16:07:00,
2013-03-05 11:12:00,66.4,50.2,29.99,West,270,10.0,13.0,56,0.00,,,0.00,meteohub,2013-03-05 16:12:00,
2013-03-05 11:17:00,67.3,51.1,29.99,West,270,8.0,13.0,56,0.00,,,0.00,meteohub,2013-03-05 16:17:00,
2013-03-05 11:22:00,66.7,51.4,29.98,West,270,8.0,14.0,58,0.00,,,0.00,meteohub,2013-03-05 16:22:00,
2013-03-05 11:27:00,67.5,50.7,29.97,NW,315,8.0,14.0,55,0.00,,,0.00,meteohub,2013-03-05 16:27:00,
2013-03-05 11:32:00,68.0,50.7,29.97,NW,315,11.0,12.0,54,0.00,,,0.00,meteohub,2013-03-05 16:32:00,
2013-03-05 11:37:00,68.7,52.0,29.97,WNW,293,6.0,12.0,55,0.00,,,0.00,meteohub,2013-03-05 16:37:00,
2013-03-05 11:42:00,69.1,51.8,29.97,West,270,11.0,13.0,54,0.00,,,0.00,meteohub,2013-03-05 16:42:00,
2013-03-05 11:47:00,69.6,51.8,29.96,South,180,7.0,13.0,53,0.00,,,0.00,meteohub,2013-03-05 16:47:00,
2013-03-05 11:52:00,70.3,51.8,29.96,West,270,11.0,13.0,52,0.00,,,0.00,meteohub,2013-03-05 16:52:00,
2013-03-05 11:57:00,70.9,52.3,29.95,WNW,293,11.0,12.0,52,0.00,,,0.00,meteohub,2013-03-05 16:57:00,
2013-03-05 12:02:00,70.3,52.3,29.95,West,270,10.0,13.0,53,0.00,,,0.00,meteohub,2013-03-05 17:02:00,
2013-03-05 12:07:00,69.8,50.9,29.95,West,270,9.0,15.0,51,0.00,,,0.00,meteohub,2013-03-05 17:07:00,
2013-03-05 12:12:00,68.7,51.4,29.94,North,0,7.0,15.0,54,0.00,,,0.00,meteohub,2013-03-05 17:12:00,
2013-03-05 12:17:00,68.2,50.4,29.94,NW,315,8.0,15.0,53,0.00,,,0.00,meteohub,2013-03-05 17:17:00,
2013-03-05 12:22:00,68.2,51.4,29.94,NW,315,5.0,11.0,55,0.00,,,0.00,meteohub,2013-03-05 17:22:00,
2013-03-05 12:27:00,68.2,52.3,29.94,North,0,4.0,11.0,57,0.00,,,0.00,meteohub,2013-03-05 17:27:00,
2013-03-05 12:32:00,68.0,51.8,29.93,West,270,7.0,11.0,56,0.00,,,0.00,meteohub,2013-03-05 17:32:00,
2013-03-05 12:37:00,67.6,51.8,29.93,West,270,7.0,8.0,57,0.00,,,0.00,meteohub,2013-03-05 17:37:00,
2013-03-05 12:42:00,67.5,51.6,29.93,NW,315,6.0,8.0,57,0.00,,,0.00,meteohub,2013-03-05 17:42:00,
2013-03-05 12:47:00,67.8,51.6,29.92,NW,315,5.0,8.0,56,0.00,,,0.00,meteohub,2013-03-05 17:47:00,
2013-03-05 12:52:00,68.2,52.9,29.92,SE,135,4.0,10.0,58,0.00,,,0.00,meteohub,2013-03-05 17:52:00,
2013-03-05 12:57:00,68.5,53.2,29.92,WNW,293,2.0,10.0,58,0.00,,,0.00,meteohub,2013-03-05 17:57:00,
2013-03-05 13:02:00,68.4,53.1,29.91,South,180,2.0,10.0,58,0.00,,,0.00,meteohub,2013-03-05 18:02:00,
2013-03-05 13:07:00,68.7,54.7,29.91,West,270,2.0,7.0,61,0.00,,,0.00,meteohub,2013-03-05 18:07:00,
2013-03-05 13:12:00,69.1,54.1,29.91,NW,315,4.0,4.0,59,0.00,,,0.00,meteohub,2013-03-05 18:12:00,
2013-03-05 13:17:00,68.9,53.6,29.90,East,90,4.0,5.0,58,0.00,,,0.00,meteohub,2013-03-05 18:17:00,
2013-03-05 13:22:00,68.4,53.1,29.90,NW,315,7.0,7.0,58,0.00,,,0.00,meteohub,2013-03-05 18:22:00,
2013-03-05 13:27:00,67.8,53.4,29.89,NW,315,3.0,8.0,60,0.00,,,0.00,meteohub,2013-03-05 18:27:00,
2013-03-05 13:32:00,67.5,54.5,29.90,SW,225,4.0,8.0,63,0.00,,,0.00,meteohub,2013-03-05 18:32:00,
2013-03-05 13:37:00,67.3,54.3,29.89,NW,315,2.0,8.0,63,0.00,,,0.00,meteohub,2013-03-05 18:37:00,
2013-03-05 13:42:00,67.3,54.7,29.88,NW,315,2.0,6.0,64,0.00,,,0.00,meteohub,2013-03-05 18:42:00,
2013-03-05 13:47:00,67.5,55.2,29.88,South,180,2.0,8.0,65,0.00,,,0.00,meteohub,2013-03-05 18:47:00,
2013-03-05 13:52:00,67.8,55.2,29.88,NW,315,4.0,8.0,64,0.00,,,0.00,meteohub,2013-03-05 18:52:00,
2013-03-05 13:57:00,67.6,55.0,29.88,South,180,4.0,8.0,64,0.00,,,0.00,meteohub,2013-03-05 18:57:00,
2013-03-05 14:02:00,67.3,54.7,29.88,NW,315,7.0,7.0,64,0.00,,,0.00,meteohub,2013-03-05 19:02:00,
2013-03-05 14:07:00,66.6,54.5,29.88,SE,135,8.0,8.0,65,0.00,,,0.00,meteohub,2013-03-05 19:07:00,
2013-03-05 14:12:00,66.0,54.3,29.87,SE,135,7.0,8.0,66,0.00,,,0.00,meteohub,2013-03-05 19:12:00,
2013-03-05 14:17:00,65.8,54.1,29.87,ENE,68,4.0,8.0,66,0.00,,,0.00,meteohub,2013-03-05 19:17:00,
2013-03-05 14:22:00,66.6,55.2,29.87,West,270,3.0,8.0,67,0.00,,,0.00,meteohub,2013-03-05 19:22:00,
2013-03-05 14:27:00,67.1,55.4,29.86,West,270,3.0,8.0,66,0.00,,,0.00,meteohub,2013-03-05 19:27:00,
2013-03-05 14:32:00,67.3,55.6,29.86,NW,315,5.0,5.0,66,0.00,,,0.00,meteohub,2013-03-05 19:32:00,
2013-03-05 14:37:00,66.6,56.1,29.86,North,0,7.0,7.0,69,0.00,,,0.00,meteohub,2013-03-05 19:37:00,
2013-03-05 14:42:00,65.8,55.8,29.86,NW,315,3.0,7.0,70,0.00,,,0.00,meteohub,2013-03-05 19:42:00,
2013-03-05 14:47:00,65.7,55.6,29.86,NW,315,4.0,7.0,70,0.00,,,0.00,meteohub,2013-03-05 19:47:00,
2013-03-05 14:52:00,65.3,55.6,29.86,West,270,4.0,7.0,71,0.00,,,0.00,meteohub,2013-03-05 19:52:00,
2013-03-05 14:57:00,64.9,55.8,29.87,West,270,4.0,6.0,72,0.00,,,0.00,meteohub,2013-03-05 19:57:00,
2013-03-05 15:02:00,64.8,57.0,29.85,SE,135,1.0,7.0,76,0.00,,,0.00,meteohub,2013-03-05 20:02:00,
2013-03-05 15:08:00,65.3,56.8,29.85,SE,135,2.0,7.0,74,0.00,,,0.00,meteohub,2013-03-05 20:08:00,
2013-03-05 15:13:00,66.0,56.7,29.85,West,270,2.0,5.0,72,0.00,,,0.00,meteohub,2013-03-05 20:13:00,
2013-03-05 15:18:00,66.7,56.7,29.85,SW,225,6.0,6.0,70,0.00,,,0.00,meteohub,2013-03-05 20:18:00,
2013-03-05 15:23:00,67.5,57.4,29.84,South,180,2.0,4.0,70,0.00,,,0.00,meteohub,2013-03-05 20:23:00,
2013-03-05 15:28:00,68.5,57.2,29.85,West,270,2.0,6.0,67,0.00,,,0.00,meteohub,2013-03-05 20:28:00,
2013-03-05 15:33:00,67.6,56.7,29.84,NW,315,2.0,6.0,68,0.00,,,0.00,meteohub,2013-03-05 20:33:00,
2013-03-05 15:38:00,66.6,56.5,29.85,South,180,3.0,5.0,70,0.00,,,0.00,meteohub,2013-03-05 20:38:00,
2013-03-05 15:43:00,66.4,56.7,29.84,NW,315,1.0,5.0,71,0.00,,,0.00,meteohub,2013-03-05 20:43:00,
2013-03-05 15:48:00,66.9,57.2,29.84,North,0,2.0,5.0,71,0.00,,,0.00,meteohub,2013-03-05 20:48:00,
2013-03-05 15:53:00,67.5,57.0,29.83,SE,135,8.0,8.0,69,0.00,,,0.00,meteohub,2013-03-05 20:53:00,
2013-03-05 15:58:00,67.5,57.0,29.83,NW,315,7.0,8.0,69,0.00,,,0.00,meteohub,2013-03-05 20:58:00,
2013-03-05 16:03:00,66.9,56.5,29.83,West,270,2.0,8.0,69,0.00,,,0.00,meteohub,2013-03-05 21:03:00,
2013-03-05 16:08:00,66.4,56.7,29.83,NW,315,4.0,8.0,71,0.00,,,0.00,meteohub,2013-03-05 21:08:00,
2013-03-05 16:13:00,66.2,56.8,29.82,NW,315,4.0,7.0,72,0.00,,,0.00,meteohub,2013-03-05 21:13:00,
2013-03-05 16:19:00,66.7,57.0,29.82,NW,315,4.0,6.0,71,0.00,,,0.00,meteohub,2013-03-05 21:19:00,
2013-03-05 16:24:00,67.3,57.6,29.81,NE,45,3.0,6.0,71,0.00,,,0.00,meteohub,2013-03-05 21:24:00,
2013-03-05 16:29:00,70.0,59.4,29.81,West,270,2.0,4.0,69,0.00,,,0.00,meteohub,2013-03-05 21:29:00,
2013-03-05 16:34:00,72.1,58.8,29.81,West,270,5.0,5.0,63,0.00,,,0.00,meteohub,2013-03-05 21:34:00,
2013-03-05 16:39:00,72.1,58.8,29.80,NW,315,5.0,5.0,63,0.00,,,0.00,meteohub,2013-03-05 21:39:00,
2013-03-05 16:44:00,72.3,59.0,29.79,SW,225,5.0,8.0,63,0.00,,,0.00,meteohub,2013-03-05 21:44:00,
2013-03-05 16:49:00,72.0,59.2,29.79,NW,315,8.0,8.0,64,0.00,,,0.00,meteohub,2013-03-05 21:49:00,
2013-03-05 16:54:00,72.3,59.0,29.78,NW,315,8.0,8.0,63,0.00,,,0.00,meteohub,2013-03-05 21:54:00,
2013-03-05 16:59:00,72.3,59.5,29.78,NE,45,4.0,11.0,64,0.00,,,0.00,meteohub,2013-03-05 21:59:00,
2013-03-05 17:04:00,72.5,59.5,29.78,NE,45,2.0,11.0,64,0.00,,,0.00,meteohub,2013-03-05 22:04:00,
2013-03-05 17:09:00,73.2,59.9,29.78,SW,225,3.0,11.0,63,0.00,,,0.00,meteohub,2013-03-05 22:09:00,
2013-03-05 17:14:00,72.7,59.4,29.77,North,0,2.0,6.0,63,0.00,,,0.00,meteohub,2013-03-05 22:14:00,
2013-03-05 17:20:00,72.1,58.8,29.76,West,270,5.0,6.0,63,0.00,,,0.00,meteohub,2013-03-05 22:20:00,
2013-03-05 17:25:00,71.4,59.0,29.76,NW,315,4.0,6.0,65,0.00,,,0.00,meteohub,2013-03-05 22:25:00,
2013-03-05 17:30:00,71.1,58.6,29.76,SW,225,3.0,7.0,65,0.00,,,0.00,meteohub,2013-03-05 22:30:00,
2013-03-05 17:35:00,69.8,57.9,29.76,North,0,5.0,7.0,66,0.00,,,0.00,meteohub,2013-03-05 22:35:00,
2013-03-05 17:40:00,67.6,57.6,29.77,East,90,3.0,5.0,70,0.00,,,0.00,meteohub,2013-03-05 22:40:00,
2013-03-05 17:45:00,66.0,57.6,29.77,West,270,2.0,5.0,74,0.00,,,0.00,meteohub,2013-03-05 22:45:00,
2013-03-05 17:50:00,64.9,57.6,29.77,NW,315,2.0,8.0,77,0.00,,,0.00,meteohub,2013-03-05 22:50:00,
2013-03-05 17:55:00,64.4,57.4,29.77,NW,315,2.0,8.0,78,0.00,,,0.00,meteohub,2013-03-05 22:55:00,
2013-03-05 18:00:00,63.9,57.6,29.77,West,270,2.0,8.0,80,0.00,,,0.00,meteohub,2013-03-05 23:00:00,
2013-03-05 18:05:00,63.3,57.7,29.76,SSW,203,4.0,6.0,82,0.00,,,0.00,meteohub,2013-03-05 23:05:00,
2013-03-05 18:10:00,62.8,57.6,29.76,SW,225,3.0,6.0,83,0.00,,,0.00,meteohub,2013-03-05 23:10:00,
2013-03-05 18:15:00,62.6,57.7,29.76,North,0,2.0,6.0,84,0.00,,,0.00,meteohub,2013-03-05 23:15:00,
2013-03-05 18:20:00,62.2,57.7,29.76,NE,45,2.0,5.0,85,0.00,,,0.00,meteohub,2013-03-05 23:20:00,
2013-03-05 18:25:00,62.1,57.7,29.76,North,0,2.0,6.0,86,0.00,,,0.00,meteohub,2013-03-05 23:25:00,
2013-03-05 18:31:00,61.7,57.4,29.76,SW,225,3.0,6.0,86,0.00,,,0.00,meteohub,2013-03-05 23:31:00,
2013-03-05 18:36:00,61.7,57.7,29.75,North,0,1.0,6.0,87,0.00,,,0.00,meteohub,2013-03-05 23:36:00,
2013-03-05 18:41:00,61.2,57.2,29.75,NW,315,1.0,7.0,87,0.00,,,0.00,meteohub,2013-03-05 23:41:00,
2013-03-05 18:46:00,60.8,57.6,29.75,SW,225,4.0,7.0,89,0.00,,,0.00,meteohub,2013-03-05 23:46:00,
2013-03-05 18:51:00,60.4,57.6,29.75,NW,315,4.0,4.0,90,0.00,,,0.00,meteohub,2013-03-05 23:51:00,
2013-03-05 18:56:00,60.4,57.6,29.74,West,270,2.0,4.0,90,0.00,,,0.00,meteohub,2013-03-05 23:56:00,
2013-03-05 19:01:00,60.1,57.4,29.73,NW,315,2.0,4.0,91,0.00,,,0.00,meteohub,2013-03-06 00:01:00,
2013-03-05 19:06:00,60.1,58.1,29.73,SW,225,3.0,4.0,93,0.00,,,0.00,meteohub,2013-03-06 00:06:00,
2013-03-05 19:11:00,60.1,58.1,29.73,NW,315,2.0,4.0,93,0.00,,,0.00,meteohub,2013-03-06 00:11:00,
2013-03-05 19:17:00,59.9,57.9,29.73,NW,315,2.0,4.0,93,0.00,,,0.00,meteohub,2013-03-06 00:17:00,
2013-03-05 19:22:00,59.9,58.1,29.73,NW,315,2.0,4.0,94,0.00,,,0.00,meteohub,2013-03-06 00:22:00,
2013-03-05 19:27:00,59.9,58.5,29.72,West,270,2.0,6.0,95,0.00,,,0.00,meteohub,2013-03-06 00:27:00,
2013-03-05 19:32:00,59.7,58.6,29.70,NW,315,2.0,6.0,96,0.00,,,0.00,meteohub,2013-03-06 00:32:00,
2013-03-05 19:37:00,59.7,59.2,29.70,West,270,4.0,5.0,98,0.00,,,0.00,meteohub,2013-03-06 00:37:00,
2013-03-05 19:42:00,59.9,59.4,29.71,SW,225,7.0,7.0,98,0.00,,,0.00,meteohub,2013-03-06 00:42:00,
2013-03-05 19:47:00,60.1,59.5,29.70,West,270,6.0,7.0,98,0.00,,,0.00,meteohub,2013-03-06 00:47:00,
2013-03-05 19:52:00,60.3,59.7,29.70,WSW,248,4.0,8.0,98,0.00,,,0.00,meteohub,2013-03-06 00:52:00,
2013-03-05 19:57:00,60.3,59.7,29.69,South,180,1.0,8.0,98,0.00,,,0.00,meteohub,2013-03-06 00:57:00,
2013-03-05 20:02:00,60.1,59.7,29.69,West,270,7.0,8.0,99,0.00,,,0.00,meteohub,2013-03-06 01:02:00,
2013-03-05 20:07:00,60.1,59.5,29.69,West,270,2.0,7.0,98,0.00,,,0.00,meteohub,2013-03-06 01:07:00,
2013-03-05 20:12:00,59.9,59.5,29.68,SE,135,3.0,7.0,99,0.00,,,0.00,meteohub,2013-03-06 01:12:00,
2013-03-05 20:17:00,59.9,59.5,29.68,SW,225,4.0,7.0,99,0.00,,,0.00,meteohub,2013-03-06 01:17:00,
2013-03-05 20:22:00,60.3,59.9,29.68,West,270,2.0,6.0,99,0.00,,,0.00,meteohub,2013-03-06 01:22:00,
2013-03-05 20:27:00,60.6,60.3,29.68,SW,225,4.0,6.0,99,0.00,,,0.00,meteohub,2013-03-06 01:27:00,
2013-03-05 20:32:00,60.8,60.4,29.68,NW,315,3.0,8.0,99,0.00,,,0.00,meteohub,2013-03-06 01:32:00,
2013-03-05 20:37:00,61.3,61.0,29.69,West,270,9.0,10.0,99,0.00,,,0.00,meteohub,2013-03-06 01:37:00,
2013-03-05 20:42:00,62.6,62.1,29.68,SW,225,8.0,10.0,98,0.00,,,0.00,meteohub,2013-03-06 01:42:00,
2013-03-05 20:47:00,63.1,62.1,29.67,WNW,293,4.0,11.0,96,0.00,,,0.00,meteohub,2013-03-06 01:47:00,
2013-03-05 20:52:00,63.9,62.4,29.66,NW,315,15.0,15.0,95,0.00,,,0.00,meteohub,2013-03-06 01:52:00,
2013-03-05 20:57:00,64.6,62.8,29.68,NW,315,12.0,15.0,94,0.00,,,0.00,meteohub,2013-03-06 01:57:00,
2013-03-05 21:02:00,64.9,62.8,29.68,SW,225,11.0,17.0,93,0.00,,,0.00,meteohub,2013-03-06 02:02:00,
2013-03-05 21:07:00,65.5,63.1,29.68,West,270,9.0,17.0,92,0.00,,,0.00,meteohub,2013-03-06 02:07:00,
2013-03-05 21:12:00,65.5,63.1,29.68,NW,315,10.0,19.0,92,0.00,,,0.00,meteohub,2013-03-06 02:12:00,
2013-03-05 21:17:00,65.7,63.5,29.68,West,270,11.0,19.0,93,0.00,,,0.00,meteohub,2013-03-06 02:17:00,
2013-03-05 21:22:00,66.0,63.7,29.69,NW,315,15.0,19.0,92,0.00,,,0.00,meteohub,2013-03-06 02:22:00,
2013-03-05 21:27:00,66.2,63.9,29.68,NW,315,17.0,18.0,92,0.00,,,0.00,meteohub,2013-03-06 02:27:00,
2013-03-05 21:32:00,66.6,63.9,29.68,West,270,11.0,18.0,91,0.00,,,0.00,meteohub,2013-03-06 02:32:00,
2013-03-05 21:37:00,66.6,63.9,29.68,West,270,11.0,17.0,91,0.00,,,0.00,meteohub,2013-03-06 02:37:00,
2013-03-05 21:42:00,66.6,64.2,29.68,West,270,11.0,17.0,92,0.00,,,0.00,meteohub,2013-03-06 02:42:00,
2013-03-05 21:47:00,66.7,64.4,29.68,West,270,13.0,15.0,92,0.00,,,0.00,meteohub,2013-03-06 02:47:00,
2013-03-05 21:52:00,66.7,64.0,29.68,NW,315,14.0,21.0,91,0.00,,,0.00,meteohub,2013-03-06 02:52:00,
2013-03-05 21:57:00,66.9,64.6,29.68,West,270,16.0,21.0,92,0.00,,,0.00,meteohub,2013-03-06 02:57:00,
2013-03-05 22:02:00,66.0,65.7,29.72,NE,45,11.0,21.0,99,0.00,,,0.00,meteohub,2013-03-06 03:02:00,
2013-03-05 22:07:00,63.3,63.0,29.73,NW,315,16.0,21.0,99,0.01,,,0.01,meteohub,2013-03-06 03:07:00,
2013-03-05 22:12:00,61.7,61.3,29.73,NW,315,14.0,21.0,99,0.01,,,0.01,meteohub,2013-03-06 03:12:00,
2013-03-05 22:17:00,61.0,60.6,29.71,NW,315,15.0,21.0,99,0.02,,,0.02,meteohub,2013-03-06 03:17:00,
2013-03-05 22:22:00,60.4,60.1,29.71,NW,315,15.0,21.0,99,0.02,,,0.02,meteohub,2013-03-06 03:22:00,
2013-03-05 22:27:00,60.1,59.7,29.71,West,270,10.0,21.0,99,0.02,,,0.02,meteohub,2013-03-06 03:27:00,
2013-03-05 22:32:00,59.7,59.4,29.70,NW,315,8.0,21.0,99,0.02,,,0.02,meteohub,2013-03-06 03:32:00,
2013-03-05 22:37:00,59.5,59.2,29.70,NW,315,10.0,15.0,99,0.02,,,0.02,meteohub,2013-03-06 03:37:00,
2013-03-05 22:42:00,59.4,59.0,29.70,NW,315,10.0,11.0,99,0.02,,,0.02,meteohub,2013-03-06 03:42:00,
2013-03-05 22:47:00,59.4,59.0,29.70,NW,315,6.0,11.0,99,0.02,,,0.02,meteohub,2013-03-06 03:47:00,
2013-03-05 22:52:00,59.4,59.0,29.70,NW,315,8.0,11.0,99,0.02,,,0.02,meteohub,2013-03-06 03:52:00,
2013-03-05 22:57:00,59.4,59.0,29.69,NW,315,9.0,10.0,99,0.02,,,0.02,meteohub,2013-03-06 03:57:00,
2013-03-05 23:02:00,59.4,59.0,29.69,NW,315,7.0,10.0,99,0.02,,,0.02,meteohub,2013-03-06 04:02:00,
2013-03-05 23:07:00,59.2,58.8,29.69,West,270,8.0,11.0,99,0.01,,,0.02,meteohub,2013-03-06 04:07:00,
2013-03-05 23:12:00,59.4,59.0,29.70,NW,315,8.0,11.0,99,0.01,,,0.02,meteohub,2013-03-06 04:12:00,
2013-03-05 23:17:00,59.2,58.8,29.70,SW,225,8.0,12.0,99,0.00,,,0.02,meteohub,2013-03-06 04:17:00,
2013-03-05 23:22:00,59.0,58.6,29.70,NW,315,8.0,13.0,99,0.00,,,0.02,meteohub,2013-03-06 04:22:00,
2013-03-05 23:27:00,58.8,58.5,29.70,NW,315,11.0,13.0,99,0.00,,,0.02,meteohub,2013-03-06 04:27:00,
2013-03-05 23:32:00,58.6,58.3,29.71,NW,315,8.0,13.0,99,0.00,,,0.02,meteohub,2013-03-06 04:32:00,
2013-03-05 23:37:00,58.5,58.1,29.70,NW,315,11.0,13.0,99,0.00,,,0.02,meteohub,2013-03-06 04:37:00,
2013-03-05 23:42:00,58.3,57.9,29.70,NW,315,10.0,12.0,99,0.00,,,0.02,meteohub,2013-03-06 04:42:00,
2013-03-05 23:47:00,58.1,57.7,29.70,WNW,293,11.0,16.0,99,0.00,,,0.02,meteohub,2013-03-06 04:47:00,
2013-03-05 23:52:00,57.7,57.4,29.70,NNW,338,9.0,16.0,99,0.00,,,0.02,meteohub,2013-03-06 04:52:00,
2013-03-05 23:57:00,57.7,57.4,29.70,WNW,293,15.0,16.0,99,0.00,,,0.02,meteohub,2013-03-06 04:57:00,